Main page
METAR-TAF:

METAR-TAF

Airports :

RAF Lakenheath

Lakenheath, England

latitude: 52-25N, longitude: 000-34E, elevation: 10 m

Current weather observation

The report was made 21 minutes ago, at 19:53 UTC
Wind 11 kt from the South/Southwest
Temperature 9°C
Humidity 93%
Pressure 1004 hPa
Visibility 10 km or more
Broken clouds at a height of 1400 ft
Broken clouds at a height of 3500 ft

METAR: EGUL 261953Z AUTO 20011KT 9999 BKN014 BKN035 09/08 A2964 RMK AO2 RAB06E18 CIG 014V035 BKN014 V SCT SLP041 $

Time: 20:14 (20:14 UTC)


TAF: missing

Weather observations and forecasts of more than 4000 airports (METAR and TAF reports).

The available stations are represented by yellow and red dots on the map.

Hover mouse over dot to see the name of the station.

Then click to see weather observations and forecasts.

To change the map : click on the green buttons with a black cross to zoom in, on the green button with a dash to zoom out, or on the green arrows for adjacent maps.


METAR-TAF: